Hutchinson County Airport - Borger, Texas, United States - FAA: BGD - ICAO: KBGD - IATA: BGD

 
  Longest Runway: 6,300 feet   Approach Types:    Customs Landing Rights Airport: No   Port of Entry: No

Local Forecast

This Afternoon (10/25): Sunny, with a high near 90. South wind around 10 mph.

Tonight (10/25): Clear, with a low around 57. South wind 10 to 15 mph, with gusts as high as 20 mph.

Sunday (10/26): Sunny, with a high near 88. Southwest wind 10 to 15 mph, with gusts as high as 25 mph.

Sunday Night (10/26): Partly cloudy, with a low around 57. Southwest wind 10 to 15 mph.

Monday (10/27): Mostly sunny, with a high near 80. West southwest wind 5 to 10 mph becoming northwest in the afternoon.

Monday Night (10/27): Partly cloudy, with a low around 44. North northeast wind 5 to 15 mph, with gusts as high as 20 mph.

Tuesday (10/28): Mostly sunny, with a high near 68. North wind around 10 mph becoming east in the afternoon.



Current Weather (METAR)

2014/10/25 18:51 KBGD 251851Z AUTO 20010G19KT 10SM CLR 31/08 A3011 RMK AO2 SLP155 T03060083

BORGER HUTCHINSON CO AIRPORT , TX, United States (KBGD) 35-42N 101-24W 927M Oct 25, 2014 - 02:51 PM EDT / 2014.10.25 1851 UTC Wind: from the SSW (200 degrees) at 12 MPH (10 KT) gusting to 22 MPH (19 KT):0 Visibility: 10 mile(s):0 Sky conditions: clear Temperature: 87.1 F (30.6 C) Dew Point: 46.9 F (8.3 C) Relative Humidity: 24% Pressure (altimeter): 30.11 in. Hg (1019 hPa) ob: KBGD 251851Z AUTO 20010G19KT 10SM CLR 31/08 A3011 RMK AO2 SLP155 T03060083 cycle: 19

Terminal Forecast (TAF)